Time;durP1;ratioP1;P1;durP2;ratioP2;P2;SDS_P1;SDS_P2;PMS_P1;PMS_P2;Temp;Humidity;BMP_temperature;BMP_pressure;BME280_temperature;BME280_humidity;BME280_pressure;Samples;Min_cycle;Max_cycle;Signal;HPM_P1;HPM_P2
2022/11/16 00:01:38;;;;;;;197.88;58.22;;;;;;;3.42;80.25;100205.16;4960831;28;20051;-65
2022/11/16 00:04:05;;;;;;;191.80;56.67;;;;;;;3.26;80.62;100200.25;4960920;28;20054;-65
2022/11/16 00:06:31;;;;;;;132.73;53.97;;;;;;;3.42;80.15;100197.19;4960106;28;20039;-65
2022/11/16 00:11:49;;;;;;;132.65;53.95;;;;;;;3.50;79.17;100197.38;4960077;28;20050;-65
2022/11/16 00:14:16;;;;;;;169.18;58.83;;;;;;;3.67;78.77;100199.47;4960144;28;20051;-66
2022/11/16 00:16:43;;;;;;;155.90;57.90;;;;;;;3.69;78.54;100202.84;4959602;28;20051;-64
2022/11/16 00:19:10;;;;;;;157.15;58.80;;;;;;;3.68;78.94;100206.47;4960482;28;20047;-67
2022/11/16 00:21:36;;;;;;;161.30;57.40;;;;;;;3.66;79.37;100203.09;4959817;28;20051;-67
2022/11/16 00:24:04;;;;;;;136.57;57.35;;;;;;;3.63;78.83;100198.06;4960160;28;20043;-66
2022/11/16 00:26:30;;;;;;;153.85;57.28;;;;;;;3.66;79.22;100197.81;4959145;28;20079;-67
2022/11/16 00:28:57;;;;;;;178.13;57.13;;;;;;;3.48;79.63;100200.19;4959973;28;20062;-66
2022/11/16 00:31:24;;;;;;;134.77;54.00;;;;;;;3.38;79.46;100205.41;4960034;28;20047;-66
2022/11/16 00:33:50;;;;;;;138.93;55.78;;;;;;;3.35;79.55;100202.16;4959764;28;20043;-66
2022/11/16 00:36:17;;;;;;;218.52;50.75;;;;;;;3.28;79.82;100200.97;4959399;28;20055;-66
2022/11/16 00:38:43;;;;;;;166.75;52.15;;;;;;;3.21;79.76;100198.00;4960094;28;20058;-65
2022/11/16 00:41:10;;;;;;;151.85;52.15;;;;;;;3.15;79.41;100204.63;4956717;28;20447;-66
2022/11/16 00:43:37;;;;;;;134.38;51.38;;;;;;;3.28;79.55;100204.47;4959530;28;20058;-66
2022/11/16 00:46:04;;;;;;;147.77;53.60;;;;;;;3.28;79.23;100207.13;4960222;28;20043;-65
2022/11/16 00:48:30;;;;;;;143.73;53.60;;;;;;;3.25;79.62;100204.72;4959289;28;20047;-65
2022/11/16 00:50:57;;;;;;;141.07;52.78;;;;;;;3.21;79.89;100195.34;4958808;28;20457;-66
2022/11/16 00:53:24;;;;;;;121.50;52.42;;;;;;;3.49;79.07;100193.91;4959432;28;20059;-66
2022/11/16 00:55:50;;;;;;;153.73;56.88;;;;;;;3.42;79.02;100199.84;4969240;28;20057;-66
2022/11/16 00:58:17;;;;;;;122.57;54.53;;;;;;;3.56;78.61;100196.88;4978320;28;20154;-67
2022/11/16 01:00:43;;;;;;;124.57;52.15;;;;;;;3.71;77.93;100202.72;4974597;28;20047;-66
2022/11/16 01:03:10;;;;;;;118.28;54.22;;;;;;;3.77;77.84;100208.34;4977818;28;20056;-66
2022/11/16 01:05:36;;;;;;;174.68;55.08;;;;;;;3.62;77.99;100199.03;4978587;28;20446;-66
2022/11/16 01:08:03;;;;;;;141.43;54.10;;;;;;;3.48;78.36;100196.66;4979772;28;20126;-66
2022/11/16 01:10:30;;;;;;;122.60;52.38;;;;;;;3.45;78.44;100197.78;4978171;28;20043;-65
2022/11/16 01:12:56;;;;;;;132.88;48.42;;;;;;;3.27;78.62;100191.31;4978345;28;20046;-66
2022/11/16 01:15:25;;;;;;;123.15;49.03;;;;;;;3.29;78.69;100195.53;4978284;28;20055;-66
2022/11/16 01:17:53;;;;;;;128.50;49.80;;;;;;;3.18;79.08;100197.41;4978347;28;20610;-65
2022/11/16 01:20:23;;;;;;;141.55;48.33;;;;;;;3.08;79.37;100207.91;4978425;28;20058;-65
2022/11/16 01:22:50;;;;;;;129.45;48.90;;;;;;;3.27;78.97;100201.91;4977723;28;20058;-64
2022/11/16 01:25:17;;;;;;;117.97;48.38;;;;;;;3.08;79.41;100200.78;4978550;28;20050;-66
2022/11/16 01:27:43;;;;;;;166.32;49.35;;;;;;;2.99;79.99;100201.53;4979030;28;20050;-64
2022/11/16 01:30:12;;;;;;;121.88;48.40;;;;;;;3.39;79.03;100204.41;4978399;28;20463;-67
2022/11/16 01:32:39;;;;;;;137.57;51.03;;;;;;;3.38;78.56;100199.25;4977302;28;20050;-65
2022/11/16 01:35:06;;;;;;;129.63;49.70;;;;;;;3.28;78.98;100196.50;4978971;28;20050;-66
2022/11/16 01:37:32;;;;;;;123.47;50.63;;;;;;;3.42;78.59;100197.19;4978257;28;20043;-67
2022/11/16 01:39:59;;;;;;;134.30;51.15;;;;;;;3.36;78.08;100187.91;4978875;28;20050;-66
2022/11/16 01:42:27;;;;;;;127.53;51.63;;;;;;;3.33;78.76;100189.00;4977527;28;20047;-66
2022/11/16 01:44:56;;;;;;;142.10;52.90;;;;;;;3.41;78.29;100190.19;4975075;28;20050;-66
2022/11/16 01:47:23;;;;;;;134.38;50.42;;;;;;;3.35;77.97;100179.13;4977759;28;20066;-65
2022/11/16 01:49:59;;;;;;;126.18;49.90;;;;;;;3.22;78.83;100170.50;4978768;28;20053;-67
2022/11/16 01:52:30;;;;;;;141.27;51.80;;;;;;;3.32;79.13;100178.53;4976561;28;20057;-68
2022/11/16 01:54:57;;;;;;;124.80;49.67;;;;;;;3.39;78.50;100177.91;4975050;28;20047;-67
2022/11/16 01:57:31;;;;;;;123.68;52.45;;;;;;;3.45;78.73;100170.41;4956904;28;20051;-66
2022/11/16 01:59:59;;;;;;;137.50;51.58;;;;;;;3.26;78.54;100166.63;4958632;28;20071;-64
2022/11/16 02:02:26;;;;;;;129.40;49.40;;;;;;;3.27;78.46;100163.00;4957647;28;20047;-67
2022/11/16 02:04:54;;;;;;;132.68;51.53;;;;;;;3.23;79.17;100145.66;4958701;28;20043;-66
2022/11/16 02:07:30;;;;;;;131.40;46.35;;;;;;;2.76;79.85;100153.06;4957991;28;20051;-67
2022/11/16 02:10:07;;;;;;;117.00;48.80;;;;;;;3.02;79.43;100156.22;4958333;28;20067;-67
2022/11/16 02:12:52;;;;;;;138.45;49.67;;;;;;;2.90;80.26;100147.47;4957779;28;20043;-68
2022/11/16 02:15:42;;;;;;;133.10;49.72;;;;;;;2.96;79.36;100135.53;4958902;28;20419;-64
2022/11/16 02:18:34;;;;;;;127.88;48.35;;;;;;;2.99;80.19;100134.44;4958754;28;20050;-64
2022/11/16 02:21:32;;;;;;;147.43;49.42;;;;;;;3.02;79.64;100126.25;4957955;28;20055;-66
2022/11/16 02:24:34;;;;;;;177.88;51.45;;;;;;;3.04;79.30;100125.16;4957145;28;20055;-66
2022/11/16 02:27:17;;;;;;;147.70;50.85;;;;;;;2.94;80.07;100121.56;4957549;28;20053;-66
2022/11/16 02:29:53;;;;;;;143.07;47.97;;;;;;;2.95;80.04;100125.91;4958630;28;20047;-67
2022/11/16 02:32:44;;;;;;;157.77;49.95;;;;;;;2.99;80.08;100115.88;4958678;28;20051;-66
2022/11/16 02:35:22;;;;;;;138.75;50.08;;;;;;;2.89;79.76;100110.50;4958867;28;20046;-66
2022/11/16 02:37:57;;;;;;;148.70;52.25;;;;;;;2.83;80.22;100106.56;4964077;28;20058;-65
2022/11/16 02:40:29;;;;;;;145.65;49.60;;;;;;;2.90;80.54;100099.78;4957938;28;20047;-64
2022/11/16 02:43:03;;;;;;;;;;;;;;;2.78;80.50;100100.78;4958316;28;20130;-66
2022/11/16 02:45:32;;;;;;;133.55;49.42;;;;;;;3.07;79.37;100097.56;4958224;28;19937;-67
2022/11/16 02:48:06;;;;;;;168.23;49.53;;;;;;;2.93;79.46;100098.72;4957098;28;20051;-66
2022/11/16 02:50:34;;;;;;;164.70;48.75;;;;;;;2.89;79.63;100098.13;4963808;28;20043;-66
2022/11/16 02:53:01;;;;;;;203.40;47.42;;;;;;;2.86;79.76;100105.47;4957759;28;20407;-66
2022/11/16 02:55:31;;;;;;;132.63;47.50;;;;;;;2.81;80.24;100095.25;4963763;28;20054;-65
2022/11/16 02:58:00;;;;;;;152.80;46.08;;;;;;;2.69;80.00;100106.84;4977260;28;20047;-67
2022/11/16 03:00:34;;;;;;;179.27;47.90;;;;;;;2.85;79.72;100099.31;4977178;28;20055;-64
2022/11/16 03:03:07;;;;;;;156.88;49.50;;;;;;;2.75;79.59;100110.78;4977547;28;20121;-64
2022/11/16 03:05:40;;;;;;;157.52;48.47;;;;;;;2.85;79.32;100101.13;4977703;28;20042;-66
2022/11/16 03:08:37;;;;;;;184.10;47.75;;;;;;;2.71;80.02;100094.31;4976526;28;20054;-64
2022/11/16 03:14:02;;;;;;;154.10;50.05;;;;;;;3.11;78.76;100110.44;4976103;28;20051;-66
2022/11/16 03:16:33;;;;;;;179.32;50.08;;;;;;;2.98;79.25;100109.75;4975490;28;20046;-67
2022/11/16 03:19:04;;;;;;;160.93;50.22;;;;;;;3.07;79.48;100118.78;4976300;28;20061;-65
2022/11/16 03:22:06;;;;;;;139.10;51.22;;;;;;;3.27;78.76;100115.28;4976074;28;20488;-65
2022/11/16 03:24:33;;;;;;;150.23;49.40;;;;;;;2.95;79.03;100110.00;4975755;28;20107;-66
2022/11/16 03:27:18;;;;;;;168.27;51.35;;;;;;;2.81;79.71;100111.13;4976242;28;20418;-65
2022/11/16 03:30:05;;;;;;;148.80;50.05;;;;;;;3.02;79.51;100105.88;4975926;28;20134;-65
2022/11/16 03:32:49;;;;;;;148.35;50.55;;;;;;;2.93;79.52;100105.78;4976622;28;20047;-66
2022/11/16 03:35:29;;;;;;;133.07;48.92;;;;;;;3.11;79.08;100113.06;4976184;28;20514;-66
2022/11/16 03:37:58;;;;;;;122.80;49.70;;;;;;;3.06;78.38;100111.75;4975688;28;20054;-66
2022/11/16 03:40:29;;;;;;;132.90;48.67;;;;;;;2.97;79.43;100101.94;4977392;28;20063;-65
2022/11/16 03:42:58;;;;;;;146.65;51.00;;;;;;;3.02;78.94;100102.38;4979582;28;20047;-65
2022/11/16 03:45:25;;;;;;;152.90;50.60;;;;;;;2.95;78.54;100098.56;4979995;28;20057;-65
2022/11/16 03:47:51;;;;;;;127.30;49.58;;;;;;;2.76;79.83;100092.13;4980563;28;20051;-65
2022/11/16 03:50:18;;;;;;;151.27;51.80;;;;;;;2.90;79.67;100083.91;4980827;28;20050;-66
2022/11/16 03:52:44;;;;;;;134.10;54.45;;;;;;;2.89;79.70;100082.22;4979615;28;20074;-66
2022/11/16 03:55:11;;;;;;;148.23;52.10;;;;;;;2.94;79.05;100073.03;4971881;28;20110;-65
2022/11/16 03:57:37;;;;;;;161.10;50.92;;;;;;;2.73;79.44;100067.72;4960340;28;20044;-66
2022/11/16 04:00:05;;;;;;;140.70;53.78;;;;;;;2.78;80.08;100062.84;4960413;28;20124;-66
2022/11/16 04:02:32;;;;;;;127.93;54.35;;;;;;;2.85;80.24;100075.47;4960817;28;20051;-65
2022/11/16 04:24:28;;;;;;;153.68;60.85;;;;;;;2.91;80.58;100060.88;4959590;28;20555;-64
2022/11/16 04:29:44;;;;;;;173.63;63.40;;;;;;;2.92;81.17;100062.56;4960423;28;20054;-66
2022/11/16 04:37:47;;;;;;;187.57;67.63;;;;;;;3.04;80.46;100056.25;4960355;28;20043;-67
2022/11/16 04:40:26;;;;;;;191.35;67.65;;;;;;;2.96;80.80;100048.09;4960234;28;20062;-66
2022/11/16 04:42:55;;;;;;;203.90;70.68;;;;;;;3.18;81.04;100046.31;4960628;28;20066;-65
2022/11/16 04:48:08;;;;;;;203.52;67.78;;;;;;;3.15;80.86;100053.53;4959397;28;20074;-66
2022/11/16 04:50:35;;;;;;;208.95;70.60;;;;;;;3.20;80.51;100055.78;4959641;28;20439;-65
2022/11/16 04:53:03;;;;;;;207.98;68.90;;;;;;;2.99;81.00;100047.00;4959478;28;20077;-65
2022/11/16 04:55:29;;;;;;;205.63;68.43;;;;;;;3.06;81.88;100048.16;4966213;28;20085;-65
2022/11/16 04:57:56;;;;;;;242.20;67.75;;;;;;;3.14;81.02;100056.34;4978497;28;20050;-66
2022/11/16 05:00:22;;;;;;;230.57;69.28;;;;;;;3.07;81.77;100041.91;4979153;28;20058;-66
2022/11/16 05:02:49;;;;;;;213.95;69.85;;;;;;;3.22;81.34;100048.56;4978399;28;20105;-66
2022/11/16 05:05:16;;;;;;;223.73;65.72;;;;;;;3.17;81.30;100039.31;4979165;28;20047;-66
2022/11/16 05:07:43;;;;;;;247.82;69.85;;;;;;;3.23;81.27;100033.50;4978800;28;20419;-66
2022/11/16 05:10:10;;;;;;;222.65;68.13;;;;;;;3.26;81.46;100033.25;4977993;28;20053;-65
2022/11/16 05:12:37;;;;;;;251.60;71.40;;;;;;;3.31;80.99;100034.53;4978681;28;20043;-66
2022/11/16 05:15:05;;;;;;;248.27;70.60;;;;;;;3.48;80.72;100033.09;4978191;28;20054;-65
2022/11/16 05:17:32;;;;;;;228.75;69.13;;;;;;;3.50;80.30;100031.16;4978185;28;20050;-65
2022/11/16 05:22:43;;;;;;;219.57;66.53;;;;;;;3.43;80.61;100037.94;4978156;28;20410;-66
2022/11/16 05:25:11;;;;;;;241.52;70.80;;;;;;;3.36;81.43;100044.75;4978897;28;20051;-65
2022/11/16 05:27:37;;;;;;;228.50;71.57;;;;;;;3.51;80.59;100046.09;4978686;28;20043;-66
2022/11/16 05:30:05;;;;;;;228.63;67.45;;;;;;;3.55;80.46;100051.97;4977932;28;20151;-64
2022/11/16 05:32:31;;;;;;;226.50;69.97;;;;;;;3.61;80.60;100049.63;4977537;28;20055;-66
2022/11/16 05:34:58;;;;;;;211.77;67.45;;;;;;;3.70;80.14;100058.63;4968001;28;20054;-65
2022/11/16 05:37:25;;;;;;;228.55;69.78;;;;;;;3.68;80.28;100065.03;4977966;28;20050;-65
2022/11/16 05:39:53;;;;;;;226.98;68.65;;;;;;;3.53;81.01;100070.66;4977742;28;20506;-66
2022/11/16 05:42:20;;;;;;;251.02;73.18;;;;;;;3.75;80.01;100069.66;4978147;28;20054;-66
2022/11/16 05:44:46;;;;;;;238.68;73.35;;;;;;;3.94;79.50;100079.53;4977547;28;20042;-66
2022/11/16 05:47:13;;;;;;;262.45;72.82;;;;;;;3.83;79.59;100069.84;4976034;28;20055;-66
2022/11/16 05:49:39;;;;;;;249.20;72.22;;;;;;;3.71;80.46;100072.72;4977378;28;20054;-66
2022/11/16 05:52:06;;;;;;;240.43;73.75;;;;;;;3.91;80.15;100073.66;4978347;28;20049;-67
2022/11/16 05:54:32;;;;;;;242.35;73.10;;;;;;;4.14;79.32;100068.97;4977268;28;20053;-65
2022/11/16 05:56:58;;;;;;;243.18;72.95;;;;;;;4.16;78.99;100075.84;4958894;28;20051;-65
2022/11/16 05:59:26;;;;;;;247.93;72.72;;;;;;;4.06;79.23;100072.31;4957362;28;20066;-65
2022/11/16 06:01:53;;;;;;;248.30;72.93;;;;;;;4.20;78.80;100077.25;4958780;28;20055;-65
2022/11/16 06:04:19;;;;;;;233.55;72.47;;;;;;;4.27;78.46;100078.38;4957832;28;20044;-67
2022/11/16 06:06:50;;;;;;;172.52;53.33;;;;;;;4.52;78.04;100085.06;4949571;28;20499;-65
2022/11/16 06:09:16;;;;;;;244.02;74.28;;;;;;;4.61;77.27;100091.38;4958834;28;20055;-68
2022/11/16 06:11:43;;;;;;;250.77;75.40;;;;;;;4.46;77.91;100087.44;4957617;28;20047;-67
2022/11/16 06:14:09;;;;;;;241.95;75.97;;;;;;;4.62;77.62;100094.88;4958591;28;20043;-66
2022/11/16 06:16:35;;;;;;;257.63;78.60;;;;;;;4.57;77.27;100084.66;4956618;28;20054;-65
2022/11/16 06:19:02;;;;;;;233.77;72.95;;;;;;;4.43;77.51;100087.72;4957552;28;20118;-65
2022/11/16 06:21:29;;;;;;;239.10;75.65;;;;;;;4.37;78.65;100080.25;4956471;28;20050;-65
2022/11/16 06:23:55;;;;;;;227.70;70.25;;;;;;;4.35;77.88;100083.03;4957347;28;20054;-66
2022/11/16 06:26:21;;;;;;;237.60;71.82;;;;;;;4.46;78.29;100087.44;4957774;28;20106;-65
2022/11/16 06:28:48;;;;;;;272.20;73.32;;;;;;;4.57;77.29;100096.13;4957376;28;20047;-65
2022/11/16 06:31:14;;;;;;;266.00;74.13;;;;;;;4.42;77.45;100092.19;4956386;28;20047;-65
2022/11/16 06:33:41;;;;;;;245.98;73.43;;;;;;;4.49;77.50;100095.13;4957456;28;20047;-66
2022/11/16 06:36:07;;;;;;;244.68;72.57;;;;;;;4.47;77.50;100094.41;4957324;28;20407;-66
2022/11/16 06:38:34;;;;;;;276.77;75.80;;;;;;;4.63;77.38;100092.09;4956425;28;20047;-66
2022/11/16 06:41:01;;;;;;;292.77;79.35;;;;;;;4.58;77.37;100102.25;4957143;28;20500;-65
2022/11/16 06:43:28;;;;;;;235.02;72.22;;;;;;;4.63;77.41;100100.06;4957001;28;20055;-65
2022/11/16 06:45:59;;;;;;;228.80;71.57;;;;;;;4.56;77.39;100104.25;4956946;28;20054;-65
2022/11/16 06:48:25;;;;;;;231.80;71.27;;;;;;;4.65;76.74;100103.41;4955848;28;20492;-65
2022/11/16 06:50:52;;;;;;;221.07;68.10;;;;;;;4.61;77.34;100099.34;4957266;28;20727;-65
2022/11/16 06:53:19;;;;;;;239.98;69.78;;;;;;;4.54;77.38;100090.25;4961804;28;20057;-65
2022/11/16 06:55:53;;;;;;;235.77;69.90;;;;;;;4.46;78.13;100090.94;4965975;28;20050;-66
2022/11/16 06:58:19;;;;;;;236.98;71.05;;;;;;;4.62;77.51;100101.00;4975586;28;20047;-65
2022/11/16 07:00:45;;;;;;;225.35;69.32;;;;;;;4.59;77.46;100106.63;4975906;28;20150;-65
2022/11/16 07:03:12;;;;;;;229.98;69.30;;;;;;;4.44;77.79;100100.00;4976335;28;20061;-66
2022/11/16 07:05:40;;;;;;;231.50;69.75;;;;;;;4.49;77.61;100095.97;4976617;28;20051;-67
2022/11/16 07:08:07;;;;;;;224.98;69.22;;;;;;;4.48;77.87;100090.78;4976269;28;20046;-67
2022/11/16 07:10:33;;;;;;;228.95;68.85;;;;;;;4.40;78.32;100096.78;4977096;28;20058;-66
2022/11/16 07:13:02;;;;;;;233.25;68.10;;;;;;;4.32;78.55;100094.78;4975637;28;20058;-67
2022/11/16 07:15:29;;;;;;;238.40;70.78;;;;;;;4.20;79.10;100097.66;4976250;28;20081;-65
2022/11/16 07:17:55;;;;;;;231.65;69.03;;;;;;;4.31;78.88;100089.56;4980089;28;20050;-66
2022/11/16 07:20:22;;;;;;;235.60;70.47;;;;;;;4.29;79.26;100087.06;4980815;28;20043;-67
2022/11/16 07:22:48;;;;;;;250.80;72.22;;;;;;;4.39;79.07;100091.63;4980377;28;20047;-68
2022/11/16 07:25:15;;;;;;;253.48;70.95;;;;;;;4.52;78.55;100089.53;4979271;28;20068;-66
2022/11/16 07:27:41;;;;;;;249.13;72.20;;;;;;;4.36;79.05;100097.16;4974536;28;20047;-66
2022/11/16 07:30:08;;;;;;;257.52;74.15;;;;;;;4.32;79.50;100092.13;4980172;28;20046;-65
2022/11/16 07:32:34;;;;;;;255.05;70.57;;;;;;;4.47;78.50;100111.19;4978870;28;20043;-66
2022/11/16 07:35:01;;;;;;;258.70;70.38;;;;;;;4.57;78.70;100109.41;4980271;28;20046;-65
2022/11/16 07:37:27;;;;;;;256.42;68.95;;;;;;;4.24;79.60;100110.53;4975650;28;20068;-64
2022/11/16 07:39:54;;;;;;;270.05;69.82;;;;;;;4.25;80.00;100103.41;4991385;28;20050;-65
2022/11/16 07:42:20;;;;;;;282.05;70.75;;;;;;;4.32;79.78;100112.53;4981523;28;20446;-65
2022/11/16 07:44:47;;;;;;;273.60;71.45;;;;;;;4.41;79.28;100095.78;4980173;28;20057;-65
2022/11/16 07:47:13;;;;;;;303.48;71.93;;;;;;;4.36;79.21;100103.31;4979181;28;20054;-65
2022/11/16 07:49:40;;;;;;;282.52;72.03;;;;;;;4.30;79.54;100109.16;4979623;28;20046;-66
2022/11/16 07:52:09;;;;;;;292.05;72.80;;;;;;;4.30;80.02;100109.16;4980318;28;20050;-65
2022/11/16 07:54:36;;;;;;;273.02;66.13;;;;;;;4.05;80.06;100107.81;4980195;28;20046;-66
2022/11/16 07:57:02;;;;;;;276.05;72.60;;;;;;;4.10;80.60;100109.09;4954544;28;20047;-67
2022/11/16 07:59:29;;;;;;;292.10;72.03;;;;;;;4.14;80.49;100111.47;4960255;28;20047;-67
2022/11/16 08:01:57;;;;;;;335.77;75.47;;;;;;;3.97;81.10;100104.97;4960553;28;20058;-66
2022/11/16 08:04:24;;;;;;;296.30;75.07;;;;;;;4.15;80.63;100106.03;4960941;28;20106;-66
2022/11/16 08:06:51;;;;;;;276.80;74.18;;;;;;;4.23;80.52;100108.84;4960641;28;20051;-65
2022/11/16 08:09:17;;;;;;;306.25;77.43;;;;;;;4.20;80.38;100106.44;4958485;28;20073;-66
2022/11/16 08:11:45;;;;;;;303.85;75.50;;;;;;;4.09;80.83;100103.91;4960222;28;20044;-65
2022/11/16 08:14:12;;;;;;;291.60;74.43;;;;;;;4.09;81.00;100098.59;4959760;28;20047;-67
2022/11/16 08:16:39;;;;;;;290.55;74.50;;;;;;;4.13;80.80;100101.81;4960603;28;20058;-66
2022/11/16 08:19:05;;;;;;;295.85;72.80;;;;;;;4.03;80.90;100099.13;4960335;28;20053;-66
2022/11/16 08:21:32;;;;;;;294.92;72.03;;;;;;;4.06;80.62;100094.38;4961102;28;20050;-66
2022/11/16 08:23:58;;;;;;;297.20;73.82;;;;;;;4.22;80.37;100093.06;4960221;28;20043;-66
2022/11/16 08:26:26;;;;;;;284.02;73.43;;;;;;;4.02;81.10;100087.66;4961718;28;20043;-66
2022/11/16 08:28:54;;;;;;;285.42;76.13;;;;;;;4.05;81.07;100083.91;4961237;28;20057;-68
2022/11/16 08:31:23;;;;;;;288.90;74.43;;;;;;;4.03;80.95;100086.69;4962093;28;20058;-67
2022/11/16 08:33:53;;;;;;;287.25;75.72;;;;;;;3.94;81.57;100078.72;4959676;28;20047;-66
2022/11/16 08:36:21;;;;;;;280.92;72.80;;;;;;;3.99;80.61;100079.13;4961713;28;20488;-66
2022/11/16 08:38:49;;;;;;;282.27;74.35;;;;;;;4.03;81.20;100080.53;4960333;28;20043;-65
2022/11/16 08:41:17;;;;;;;263.40;72.38;;;;;;;3.91;81.08;100078.97;4961145;28;20058;-66
2022/11/16 08:43:45;;;;;;;261.65;67.13;;;;;;;3.76;81.41;100067.84;4960848;28;20130;-64
2022/11/16 08:46:13;;;;;;;263.85;70.00;;;;;;;3.78;81.61;100069.41;4961029;28;20496;-65
2022/11/16 08:48:40;;;;;;;280.25;71.47;;;;;;;3.86;81.41;100068.72;4960183;28;20047;-64
2022/11/16 08:51:10;;;;;;;250.63;68.57;;;;;;;3.92;81.04;100072.69;4960707;28;20401;-65
2022/11/16 08:53:46;;;;;;;258.05;69.38;;;;;;;3.76;81.86;100062.53;4961081;28;20058;-67
2022/11/16 08:56:15;;;;;;;237.50;65.68;;;;;;;3.74;81.81;100040.63;4973256;28;20046;-67
2022/11/16 08:58:45;;;;;;;231.05;67.13;;;;;;;4.16;80.34;100048.47;4980870;28;20057;-67
2022/11/16 09:01:18;;;;;;;251.35;65.32;;;;;;;4.14;80.56;100053.91;4980018;28;20050;-67
2022/11/16 09:03:45;;;;;;;243.93;63.25;;;;;;;3.86;81.20;100048.38;4978988;28;20047;-67
2022/11/16 09:06:12;;;;;;;227.40;62.03;;;;;;;3.92;80.84;100049.63;4979878;28;20062;-66
2022/11/16 09:08:40;;;;;;;223.35;60.35;;;;;;;4.04;80.66;100047.75;4978030;28;20046;-66
2022/11/16 09:11:10;;;;;;;229.77;61.45;;;;;;;4.25;79.81;100059.13;4979205;28;20491;-66
2022/11/16 09:13:36;;;;;;;229.90;63.58;;;;;;;4.24;79.99;100049.47;4978646;28;20043;-67
2022/11/16 09:16:03;;;;;;;223.70;61.70;;;;;;;3.99;80.52;100041.97;4979779;28;20053;-64
2022/11/16 09:18:30;;;;;;;227.90;61.33;;;;;;;4.02;80.31;100031.09;4977672;28;20102;-67
2022/11/16 09:20:58;;;;;;;203.27;56.60;;;;;;;3.91;80.91;100032.03;4979406;28;20054;-65
2022/11/16 09:23:24;;;;;;;220.25;61.38;;;;;;;4.11;80.41;100035.59;4979118;28;20050;-66
2022/11/16 09:25:53;;;;;;;242.45;59.53;;;;;;;4.08;79.71;100035.88;4979001;28;20055;-67
2022/11/16 09:28:21;;;;;;;190.60;54.80;;;;;;;4.02;80.54;100044.38;4978027;28;20106;-65
2022/11/16 09:30:49;;;;;;;202.48;54.78;;;;;;;4.07;79.92;100036.81;4980049;28;20051;-65
2022/11/16 09:33:16;;;;;;;191.10;52.40;;;;;;;4.12;79.62;100045.25;4978149;28;20077;-67
2022/11/16 09:35:43;;;;;;;175.95;52.53;;;;;;;4.08;79.75;100043.84;4978627;28;20050;-65
2022/11/16 09:38:09;;;;;;;191.07;51.95;;;;;;;4.21;79.69;100047.09;4980025;28;20046;-66
2022/11/16 09:40:44;;;;;;;176.88;47.63;;;;;;;4.02;79.73;100041.72;4978479;28;20576;-67
2022/11/16 09:43:29;;;;;;;178.57;49.35;;;;;;;3.95;80.00;100045.88;4978646;28;20137;-66
2022/11/16 09:46:16;;;;;;;151.02;45.75;;;;;;;3.96;79.90;100034.28;4978604;28;20388;-67
2022/11/16 09:48:43;;;;;;;152.38;45.15;;;;;;;3.88;79.93;100032.31;4982350;28;20068;-66
2022/11/16 09:51:14;;;;;;;135.20;43.08;;;;;;;4.02;79.48;100034.59;4979358;28;20050;-67
2022/11/16 09:53:46;;;;;;;98.70;32.42;;;;;;;4.19;78.79;100042.88;4977546;28;20049;-66
2022/11/16 09:56:22;;;;;;;137.50;42.83;;;;;;;4.16;78.89;100037.84;4960940;28;20064;-66
2022/11/16 09:59:18;;;;;;;136.18;44.53;;;;;;;4.40;78.06;100034.84;4958700;28;20047;-67
2022/11/16 10:01:57;;;;;;;115.25;36.97;;;;;;;4.07;78.68;100029.72;4955409;28;20058;-66
2022/11/16 10:04:46;;;;;;;82.60;32.40;;;;;;;3.99;78.50;100034.00;4959141;28;20051;-67
2022/11/16 10:07:21;;;;;;;81.53;32.30;;;;;;;4.00;78.09;100033.03;4952776;28;20047;-67
2022/11/16 10:09:48;;;;;;;73.95;29.58;;;;;;;3.95;77.99;100024.66;4958291;28;20043;-66
2022/11/16 10:12:33;;;;;;;95.97;30.63;;;;;;;4.23;77.94;100031.84;4958106;28;20047;-67
2022/11/16 10:15:35;;;;;;;85.72;28.73;;;;;;;4.10;77.47;100025.94;4956640;28;20073;-68
2022/11/16 10:18:27;;;;;;;80.03;30.10;;;;;;;3.92;77.96;100024.91;4938584;28;20512;-66
2022/11/16 10:21:26;;;;;;;64.68;25.90;;;;;;;3.85;78.31;100014.81;4958450;28;20059;-66
2022/11/16 10:24:15;;;;;;;77.53;28.88;;;;;;;3.92;77.77;100020.44;4948491;28;20377;-66
2022/11/16 10:27:19;;;;;;;79.22;30.65;;;;;;;3.83;78.10;100006.19;4957123;28;20054;-64
2022/11/16 10:30:05;;;;;;;74.28;31.08;;;;;;;3.89;78.06;100009.25;4956607;28;20420;-65
2022/11/16 10:32:52;;;;;;;75.78;32.13;;;;;;;3.78;78.01;100011.03;4956958;28;20044;-66
2022/11/16 10:35:29;;;;;;;69.05;30.52;;;;;;;3.79;77.92;100012.72;4957107;28;20514;-67
2022/11/16 10:37:58;;;;;;;74.93;32.50;;;;;;;4.10;77.48;100016.19;4955849;28;20575;-65
2022/11/16 10:40:28;;;;;;;76.03;32.28;;;;;;;4.12;77.17;100017.84;4957195;28;20120;-65
2022/11/16 10:43:19;;;;;;;68.93;31.55;;;;;;;4.00;77.22;100017.97;4956812;28;20043;-65
2022/11/16 10:45:59;;;;;;;61.55;25.58;;;;;;;4.14;76.86;100019.41;4955255;28;20043;-67
2022/11/16 10:48:36;;;;;;;75.63;30.95;;;;;;;4.07;76.50;100010.28;4956774;28;20432;-67
2022/11/16 10:51:03;;;;;;;75.85;32.17;;;;;;;4.07;76.60;100019.09;4958314;28;20071;-67
2022/11/16 10:53:33;;;;;;;66.70;31.08;;;;;;;3.76;77.18;100002.38;4961864;28;20051;-66
2022/11/16 10:56:13;;;;;;;77.50;31.03;;;;;;;4.05;76.33;100022.88;4972318;28;20039;-65
2022/11/16 10:58:48;;;;;;;71.68;31.30;;;;;;;4.18;75.50;100020.81;4979549;28;20051;-65
2022/11/16 11:01:27;;;;;;;66.53;29.90;;;;;;;4.11;75.61;100014.38;4980534;28;20069;-66
2022/11/16 11:03:54;;;;;;;73.22;31.15;;;;;;;4.40;74.88;100021.56;4978710;28;20129;-67
2022/11/16 11:06:25;;;;;;;67.50;29.35;;;;;;;4.43;74.46;100021.31;4978147;28;20058;-67
2022/11/16 11:08:51;;;;;;;61.70;27.48;;;;;;;4.51;74.03;100024.94;4979142;28;20062;-65
2022/11/16 11:14:14;;;;;;;66.47;29.63;;;;;;;4.49;73.76;100002.16;4973429;28;20072;-66
2022/11/16 11:16:41;;;;;;;58.03;29.13;;;;;;;4.49;73.77;100002.16;4986635;28;20053;-66
2022/11/16 11:19:22;;;;;;;62.72;28.50;;;;;;;4.20;74.46;100002.91;4980038;28;20053;-68
2022/11/16 11:21:49;;;;;;;;;;;;;;;4.31;74.54;100004.59;4979009;28;20051;-65
2022/11/16 11:24:17;;;;;;;51.67;26.00;;;;;;;4.09;73.97;99995.06;4980293;28;20025;-66
2022/11/16 11:27:04;;;;;;;54.45;27.38;;;;;;;4.30;73.58;99993.16;4979136;28;20051;-65
2022/11/16 11:29:34;;;;;;;56.53;28.23;;;;;;;4.34;73.26;99999.84;4978438;28;20047;-65
2022/11/16 11:32:06;;;;;;;54.17;28.17;;;;;;;4.21;72.99;99990.47;4978310;28;20050;-65
2022/11/16 11:34:40;;;;;;;56.38;28.08;;;;;;;4.32;72.64;100001.81;4979000;28;20050;-68
2022/11/16 11:37:14;;;;;;;54.95;26.02;;;;;;;4.12;72.74;100000.09;4977945;28;20051;-66
2022/11/16 11:39:41;;;;;;;50.05;25.42;;;;;;;4.12;72.83;100002.75;4977863;28;20047;-67
2022/11/16 11:42:11;;;;;;;52.15;26.38;;;;;;;4.54;71.42;100011.38;4978983;28;20059;-65
2022/11/16 11:44:50;;;;;;;50.95;25.63;;;;;;;4.51;71.34;100014.31;4977585;28;20503;-65
2022/11/16 11:47:43;;;;;;;50.92;25.02;;;;;;;4.23;72.45;100015.09;4976564;28;20050;-67
2022/11/16 11:50:43;;;;;;;53.95;25.60;;;;;;;4.24;72.79;100019.41;4978040;28;20046;-66
2022/11/16 11:53:28;;;;;;;56.00;27.77;;;;;;;4.45;72.11;100016.69;4979727;28;20411;-66
2022/11/16 11:55:57;;;;;;;51.92;26.92;;;;;;;4.28;72.39;100018.19;4968678;28;20043;-66
2022/11/16 11:58:32;;;;;;;56.13;27.02;;;;;;;4.15;72.65;100004.31;4955308;28;20047;-64
2022/11/16 12:01:22;;;;;;;63.55;27.80;;;;;;;4.30;72.51;100019.69;4959935;28;20042;-65
2022/11/16 12:03:51;;;;;;;;;;;;;;;4.08;72.87;100001.38;4950235;28;20428;-65
2022/11/16 12:06:34;;;;;;;63.10;28.50;;;;;;;4.29;72.35;100006.56;4960021;28;19973;-65
2022/11/16 12:09:19;;;;;;;61.72;27.52;;;;;;;4.16;72.86;100001.50;4955834;28;20063;-66
2022/11/16 12:11:58;;;;;;;55.30;29.60;;;;;;;4.47;71.80;100012.09;4955389;28;20539;-66